sensor_id;sensor_type;location;lat;lon;timestamp;P1;durP1;ratioP1;P2;durP2;ratioP2
16472;SDS011;8347;52.486;13.432;2024-03-23T00:56:35;21.00;;;4.07;;
16472;SDS011;8347;52.486;13.432;2024-03-23T00:59:22;16.33;;;3.47;;
16472;SDS011;8347;52.486;13.432;2024-03-23T01:02:12;15.52;;;4.03;;
16472;SDS011;8347;52.486;13.432;2024-03-23T01:04:59;19.63;;;3.55;;
16472;SDS011;8347;52.486;13.432;2024-03-23T01:07:45;16.17;;;3.58;;
16472;SDS011;8347;52.486;13.432;2024-03-23T01:10:32;18.20;;;3.42;;
16472;SDS011;8347;52.486;13.432;2024-03-23T01:13:18;13.48;;;2.67;;
16472;SDS011;8347;52.486;13.432;2024-03-23T01:16:07;13.57;;;3.65;;
16472;SDS011;8347;52.486;13.432;2024-03-23T01:18:53;16.90;;;3.40;;
16472;SDS011;8347;52.486;13.432;2024-03-23T01:21:40;20.60;;;3.83;;
16472;SDS011;8347;52.486;13.432;2024-03-23T01:24:26;18.65;;;3.30;;
16472;SDS011;8347;52.486;13.432;2024-03-23T01:27:14;18.27;;;3.65;;
16472;SDS011;8347;52.486;13.432;2024-03-23T01:30:01;17.33;;;3.03;;
16472;SDS011;8347;52.486;13.432;2024-03-23T01:32:48;21.80;;;3.25;;
16472;SDS011;8347;52.486;13.432;2024-03-23T01:35:34;19.60;;;3.47;;
16472;SDS011;8347;52.486;13.432;2024-03-23T01:38:20;19.55;;;4.75;;
16472;SDS011;8347;52.486;13.432;2024-03-23T01:41:07;15.35;;;3.80;;
16472;SDS011;8347;52.486;13.432;2024-03-23T01:43:54;17.05;;;4.10;;
16472;SDS011;8347;52.486;13.432;2024-03-23T01:46:42;14.70;;;2.97;;
16472;SDS011;8347;52.486;13.432;2024-03-23T01:49:29;13.15;;;2.83;;
16472;SDS011;8347;52.486;13.432;2024-03-23T01:52:16;16.83;;;3.40;;
16472;SDS011;8347;52.486;13.432;2024-03-23T01:55:03;16.13;;;3.97;;
16472;SDS011;8347;52.486;13.432;2024-03-23T01:57:49;25.08;;;5.40;;
16472;SDS011;8347;52.486;13.432;2024-03-23T02:00:36;15.07;;;3.50;;
16472;SDS011;8347;52.486;13.432;2024-03-23T02:03:27;18.67;;;4.90;;
16472;SDS011;8347;52.486;13.432;2024-03-23T02:06:13;13.48;;;3.60;;
16472;SDS011;8347;52.486;13.432;2024-03-23T02:09:00;15.60;;;3.70;;
16472;SDS011;8347;52.486;13.432;2024-03-23T02:11:47;19.90;;;4.68;;
16472;SDS011;8347;52.486;13.432;2024-03-23T02:14:33;13.00;;;4.78;;
16472;SDS011;8347;52.486;13.432;2024-03-23T02:17:20;20.00;;;4.38;;
16472;SDS011;8347;52.486;13.432;2024-03-23T02:20:06;13.45;;;4.25;;
16472;SDS011;8347;52.486;13.432;2024-03-23T02:22:53;26.05;;;4.90;;
16472;SDS011;8347;52.486;13.432;2024-03-23T02:25:40;17.48;;;4.85;;
16472;SDS011;8347;52.486;13.432;2024-03-23T02:28:27;22.75;;;5.30;;
16472;SDS011;8347;52.486;13.432;2024-03-23T02:31:13;15.70;;;4.65;;
16472;SDS011;8347;52.486;13.432;2024-03-23T02:34:01;23.65;;;4.55;;
16472;SDS011;8347;52.486;13.432;2024-03-23T02:36:47;18.42;;;3.88;;
16472;SDS011;8347;52.486;13.432;2024-03-23T02:39:34;15.68;;;4.43;;
16472;SDS011;8347;52.486;13.432;2024-03-23T02:42:20;19.83;;;5.32;;
16472;SDS011;8347;52.486;13.432;2024-03-23T02:45:07;19.50;;;5.10;;
16472;SDS011;8347;52.486;13.432;2024-03-23T02:47:53;11.07;;;4.03;;
16472;SDS011;8347;52.486;13.432;2024-03-23T02:50:39;17.13;;;4.35;;
16472;SDS011;8347;52.486;13.432;2024-03-23T02:53:26;21.05;;;5.63;;
16472;SDS011;8347;52.486;13.432;2024-03-23T02:56:12;16.02;;;4.38;;
16472;SDS011;8347;52.486;13.432;2024-03-23T02:59:02;19.25;;;4.60;;
16472;SDS011;8347;52.486;13.432;2024-03-23T03:01:48;15.10;;;3.92;;
16472;SDS011;8347;52.486;13.432;2024-03-23T03:04:35;17.75;;;4.80;;
16472;SDS011;8347;52.486;13.432;2024-03-23T03:07:22;12.63;;;4.40;;
16472;SDS011;8347;52.486;13.432;2024-03-23T03:10:08;17.08;;;5.55;;
16472;SDS011;8347;52.486;13.432;2024-03-23T03:12:56;19.25;;;5.10;;
16472;SDS011;8347;52.486;13.432;2024-03-23T03:15:43;17.55;;;4.63;;
16472;SDS011;8347;52.486;13.432;2024-03-23T03:18:30;16.27;;;4.95;;
16472;SDS011;8347;52.486;13.432;2024-03-23T03:21:16;18.02;;;5.43;;
16472;SDS011;8347;52.486;13.432;2024-03-23T03:24:03;15.68;;;5.70;;
16472;SDS011;8347;52.486;13.432;2024-03-23T03:26:51;21.00;;;6.55;;
16472;SDS011;8347;52.486;13.432;2024-03-23T03:29:38;21.27;;;5.60;;
16472;SDS011;8347;52.486;13.432;2024-03-23T03:32:25;16.05;;;5.47;;
16472;SDS011;8347;52.486;13.432;2024-03-23T03:35:12;18.70;;;4.68;;
16472;SDS011;8347;52.486;13.432;2024-03-23T03:37:59;17.33;;;5.15;;
16472;SDS011;8347;52.486;13.432;2024-03-23T03:40:45;18.23;;;4.60;;
16472;SDS011;8347;52.486;13.432;2024-03-23T03:43:32;18.23;;;4.35;;
16472;SDS011;8347;52.486;13.432;2024-03-23T03:46:18;21.30;;;4.13;;
16472;SDS011;8347;52.486;13.432;2024-03-23T03:49:05;17.92;;;4.68;;
16472;SDS011;8347;52.486;13.432;2024-03-23T03:51:51;16.70;;;4.60;;
16472;SDS011;8347;52.486;13.432;2024-03-23T03:54:37;17.08;;;4.88;;
16472;SDS011;8347;52.486;13.432;2024-03-23T03:57:24;16.10;;;5.13;;
16472;SDS011;8347;52.486;13.432;2024-03-23T04:00:11;17.10;;;5.82;;
16472;SDS011;8347;52.486;13.432;2024-03-23T04:02:57;19.33;;;5.28;;
16472;SDS011;8347;52.486;13.432;2024-03-23T04:05:49;18.40;;;6.07;;
16472;SDS011;8347;52.486;13.432;2024-03-23T04:08:36;12.07;;;3.67;;
16472;SDS011;8347;52.486;13.432;2024-03-23T04:11:22;14.20;;;3.95;;
16472;SDS011;8347;52.486;13.432;2024-03-23T04:14:09;15.18;;;4.35;;
16472;SDS011;8347;52.486;13.432;2024-03-23T04:16:55;17.48;;;5.43;;
16472;SDS011;8347;52.486;13.432;2024-03-23T04:19:43;18.75;;;4.13;;
16472;SDS011;8347;52.486;13.432;2024-03-23T04:22:30;15.70;;;4.78;;
16472;SDS011;8347;52.486;13.432;2024-03-23T04:25:16;21.60;;;4.05;;
16472;SDS011;8347;52.486;13.432;2024-03-23T04:28:05;9.05;;;2.70;;
16472;SDS011;8347;52.486;13.432;2024-03-23T04:30:52;14.50;;;3.05;;
16472;SDS011;8347;52.486;13.432;2024-03-23T04:33:38;9.68;;;2.67;;
16472;SDS011;8347;52.486;13.432;2024-03-23T04:36:25;12.57;;;3.00;;
16472;SDS011;8347;52.486;13.432;2024-03-23T04:39:11;7.75;;;2.90;;
16472;SDS011;8347;52.486;13.432;2024-03-23T04:41:58;9.20;;;3.00;;
16472;SDS011;8347;52.486;13.432;2024-03-23T04:44:44;12.40;;;2.13;;
16472;SDS011;8347;52.486;13.432;2024-03-23T04:47:31;7.15;;;2.67;;
16472;SDS011;8347;52.486;13.432;2024-03-23T04:50:18;7.50;;;2.22;;
16472;SDS011;8347;52.486;13.432;2024-03-23T04:53:04;6.80;;;2.13;;
16472;SDS011;8347;52.486;13.432;2024-03-23T04:55:51;9.43;;;1.90;;
16472;SDS011;8347;52.486;13.432;2024-03-23T04:58:37;7.80;;;1.90;;
16472;SDS011;8347;52.486;13.432;2024-03-23T05:01:25;7.03;;;2.00;;
16472;SDS011;8347;52.486;13.432;2024-03-23T05:04:12;9.07;;;2.85;;
16472;SDS011;8347;52.486;13.432;2024-03-23T05:06:58;15.02;;;2.30;;
16472;SDS011;8347;52.486;13.432;2024-03-23T05:09:45;13.45;;;3.92;;
16472;SDS011;8347;52.486;13.432;2024-03-23T05:12:31;10.80;;;3.58;;
16472;SDS011;8347;52.486;13.432;2024-03-23T05:15:18;10.25;;;2.50;;
16472;SDS011;8347;52.486;13.432;2024-03-23T05:18:06;7.85;;;2.45;;
16472;SDS011;8347;52.486;13.432;2024-03-23T05:20:56;11.90;;;3.20;;
16472;SDS011;8347;52.486;13.432;2024-03-23T05:23:43;9.80;;;3.10;;
16472;SDS011;8347;52.486;13.432;2024-03-23T05:26:30;7.07;;;2.53;;
16472;SDS011;8347;52.486;13.432;2024-03-23T05:29:16;3.83;;;2.90;;
16472;SDS011;8347;52.486;13.432;2024-03-23T05:32:04;9.50;;;3.05;;
16472;SDS011;8347;52.486;13.432;2024-03-23T05:34:50;7.22;;;3.40;;
16472;SDS011;8347;52.486;13.432;2024-03-23T05:37:41;10.25;;;2.75;;
16472;SDS011;8347;52.486;13.432;2024-03-23T05:40:27;10.52;;;2.45;;
16472;SDS011;8347;52.486;13.432;2024-03-23T05:43:13;7.50;;;3.20;;
16472;SDS011;8347;52.486;13.432;2024-03-23T05:46:00;8.15;;;2.83;;
16472;SDS011;8347;52.486;13.432;2024-03-23T05:48:47;11.13;;;3.83;;
16472;SDS011;8347;52.486;13.432;2024-03-23T05:51:34;11.90;;;3.72;;
16472;SDS011;8347;52.486;13.432;2024-03-23T05:54:21;14.23;;;4.10;;
16472;SDS011;8347;52.486;13.432;2024-03-23T05:57:08;6.78;;;3.70;;
16472;SDS011;8347;52.486;13.432;2024-03-23T05:59:55;13.05;;;3.60;;
16472;SDS011;8347;52.486;13.432;2024-03-23T06:02:42;14.93;;;4.05;;
16472;SDS011;8347;52.486;13.432;2024-03-23T06:05:31;12.40;;;4.60;;
16472;SDS011;8347;52.486;13.432;2024-03-23T06:08:18;10.23;;;4.18;;
16472;SDS011;8347;52.486;13.432;2024-03-23T06:11:05;10.13;;;3.90;;
16472;SDS011;8347;52.486;13.432;2024-03-23T06:13:55;11.80;;;4.05;;
16472;SDS011;8347;52.486;13.432;2024-03-23T06:16:41;11.00;;;4.10;;
16472;SDS011;8347;52.486;13.432;2024-03-23T06:19:28;19.63;;;7.00;;
16472;SDS011;8347;52.486;13.432;2024-03-23T06:22:15;13.43;;;4.50;;
16472;SDS011;8347;52.486;13.432;2024-03-23T06:25:02;15.57;;;3.70;;
16472;SDS011;8347;52.486;13.432;2024-03-23T06:27:49;19.58;;;5.05;;
16472;SDS011;8347;52.486;13.432;2024-03-23T06:30:35;20.70;;;4.60;;
16472;SDS011;8347;52.486;13.432;2024-03-23T06:33:22;7.63;;;3.17;;
16472;SDS011;8347;52.486;13.432;2024-03-23T06:36:10;10.02;;;3.13;;
16472;SDS011;8347;52.486;13.432;2024-03-23T06:38:56;20.80;;;4.03;;
16472;SDS011;8347;52.486;13.432;2024-03-23T06:41:50;10.20;;;3.17;;
16472;SDS011;8347;52.486;13.432;2024-03-23T06:44:38;15.15;;;3.35;;
16472;SDS011;8347;52.486;13.432;2024-03-23T06:47:25;16.10;;;3.28;;
16472;SDS011;8347;52.486;13.432;2024-03-23T06:50:11;19.95;;;3.55;;
16472;SDS011;8347;52.486;13.432;2024-03-23T06:52:58;9.25;;;2.90;;
16472;SDS011;8347;52.486;13.432;2024-03-23T06:55:49;20.02;;;3.05;;
16472;SDS011;8347;52.486;13.432;2024-03-23T06:58:39;15.70;;;3.20;;
16472;SDS011;8347;52.486;13.432;2024-03-23T07:01:26;8.35;;;2.63;;
16472;SDS011;8347;52.486;13.432;2024-03-23T07:04:14;11.95;;;2.90;;
16472;SDS011;8347;52.486;13.432;2024-03-23T07:07:00;14.60;;;4.60;;
16472;SDS011;8347;52.486;13.432;2024-03-23T07:09:47;16.20;;;2.70;;
16472;SDS011;8347;52.486;13.432;2024-03-23T07:12:34;10.13;;;2.60;;
16472;SDS011;8347;52.486;13.432;2024-03-23T07:15:20;7.70;;;2.90;;
16472;SDS011;8347;52.486;13.432;2024-03-23T07:18:07;9.70;;;2.72;;
16472;SDS011;8347;52.486;13.432;2024-03-23T07:20:54;11.70;;;3.38;;
16472;SDS011;8347;52.486;13.432;2024-03-23T07:23:44;17.08;;;3.22;;
16472;SDS011;8347;52.486;13.432;2024-03-23T07:26:30;11.68;;;3.10;;
16472;SDS011;8347;52.486;13.432;2024-03-23T07:29:18;13.45;;;3.33;;
16472;SDS011;8347;52.486;13.432;2024-03-23T07:32:05;14.52;;;3.47;;
16472;SDS011;8347;52.486;13.432;2024-03-23T07:34:51;11.27;;;3.53;;
16472;SDS011;8347;52.486;13.432;2024-03-23T07:37:38;11.07;;;3.05;;
16472;SDS011;8347;52.486;13.432;2024-03-23T07:40:24;13.05;;;3.83;;
16472;SDS011;8347;52.486;13.432;2024-03-23T07:43:10;11.43;;;3.25;;
16472;SDS011;8347;52.486;13.432;2024-03-23T07:45:57;10.23;;;2.65;;
16472;SDS011;8347;52.486;13.432;2024-03-23T07:48:44;14.02;;;3.15;;
16472;SDS011;8347;52.486;13.432;2024-03-23T07:51:31;14.70;;;3.38;;
16472;SDS011;8347;52.486;13.432;2024-03-23T07:54:18;6.38;;;3.42;;
16472;SDS011;8347;52.486;13.432;2024-03-23T07:57:04;11.05;;;3.35;;
16472;SDS011;8347;52.486;13.432;2024-03-23T07:59:51;12.70;;;4.07;;
16472;SDS011;8347;52.486;13.432;2024-03-23T08:02:38;9.95;;;3.42;;
16472;SDS011;8347;52.486;13.432;2024-03-23T08:05:25;7.68;;;3.22;;
16472;SDS011;8347;52.486;13.432;2024-03-23T08:08:12;11.15;;;3.80;;
16472;SDS011;8347;52.486;13.432;2024-03-23T08:10:59;11.82;;;4.63;;
16472;SDS011;8347;52.486;13.432;2024-03-23T08:13:45;8.85;;;2.80;;
16472;SDS011;8347;52.486;13.432;2024-03-23T08:16:31;8.00;;;2.58;;
16472;SDS011;8347;52.486;13.432;2024-03-23T08:19:19;11.18;;;3.15;;
16472;SDS011;8347;52.486;13.432;2024-03-23T08:22:06;12.82;;;3.00;;
16472;SDS011;8347;52.486;13.432;2024-03-23T08:24:53;10.80;;;3.20;;
16472;SDS011;8347;52.486;13.432;2024-03-23T08:27:40;6.35;;;2.25;;
16472;SDS011;8347;52.486;13.432;2024-03-23T08:30:27;11.20;;;2.72;;
16472;SDS011;8347;52.486;13.432;2024-03-23T08:33:14;4.97;;;2.38;;
16472;SDS011;8347;52.486;13.432;2024-03-23T08:36:01;6.72;;;2.75;;
16472;SDS011;8347;52.486;13.432;2024-03-23T08:38:48;11.35;;;2.85;;
16472;SDS011;8347;52.486;13.432;2024-03-23T08:41:36;13.90;;;2.92;;
16472;SDS011;8347;52.486;13.432;2024-03-23T08:44:23;7.80;;;2.33;;
16472;SDS011;8347;52.486;13.432;2024-03-23T08:47:09;7.65;;;2.55;;
16472;SDS011;8347;52.486;13.432;2024-03-23T08:49:55;13.55;;;3.03;;
16472;SDS011;8347;52.486;13.432;2024-03-23T08:52:43;12.00;;;3.40;;
16472;SDS011;8347;52.486;13.432;2024-03-23T08:55:30;5.40;;;2.75;;
16472;SDS011;8347;52.486;13.432;2024-03-23T08:58:16;7.93;;;2.65;;
16472;SDS011;8347;52.486;13.432;2024-03-23T09:01:04;9.50;;;3.10;;
16472;SDS011;8347;52.486;13.432;2024-03-23T09:03:52;9.20;;;3.47;;
16472;SDS011;8347;52.486;13.432;2024-03-23T09:06:39;15.38;;;2.90;;
16472;SDS011;8347;52.486;13.432;2024-03-23T09:09:25;5.25;;;2.10;;
16472;SDS011;8347;52.486;13.432;2024-03-23T09:12:12;10.40;;;2.75;;
16472;SDS011;8347;52.486;13.432;2024-03-23T09:14:58;6.93;;;3.20;;
16472;SDS011;8347;52.486;13.432;2024-03-23T09:17:45;14.32;;;3.22;;
16472;SDS011;8347;52.486;13.432;2024-03-23T09:20:34;8.98;;;3.25;;
16472;SDS011;8347;52.486;13.432;2024-03-23T09:23:21;6.25;;;2.28;;
16472;SDS011;8347;52.486;13.432;2024-03-23T09:26:07;8.85;;;2.45;;
16472;SDS011;8347;52.486;13.432;2024-03-23T09:28:54;4.57;;;2.20;;
16472;SDS011;8347;52.486;13.432;2024-03-23T09:31:41;9.35;;;2.97;;
16472;SDS011;8347;52.486;13.432;2024-03-23T09:34:27;11.25;;;2.33;;
16472;SDS011;8347;52.486;13.432;2024-03-23T09:37:13;9.57;;;2.20;;
16472;SDS011;8347;52.486;13.432;2024-03-23T09:40:00;7.38;;;2.20;;
16472;SDS011;8347;52.486;13.432;2024-03-23T09:42:50;8.43;;;1.88;;
16472;SDS011;8347;52.486;13.432;2024-03-23T09:45:40;8.20;;;1.80;;
16472;SDS011;8347;52.486;13.432;2024-03-23T09:48:26;7.82;;;2.50;;
16472;SDS011;8347;52.486;13.432;2024-03-23T09:51:13;9.38;;;2.33;;
16472;SDS011;8347;52.486;13.432;2024-03-23T09:53:59;8.85;;;2.90;;
16472;SDS011;8347;52.486;13.432;2024-03-23T09:56:46;8.02;;;2.17;;
16472;SDS011;8347;52.486;13.432;2024-03-23T09:59:33;7.45;;;2.50;;
16472;SDS011;8347;52.486;13.432;2024-03-23T10:02:20;5.40;;;3.38;;
16472;SDS011;8347;52.486;13.432;2024-03-23T10:05:22;8.57;;;3.10;;
16472;SDS011;8347;52.486;13.432;2024-03-23T10:11:12;11.75;;;3.88;;
16472;SDS011;8347;52.486;13.432;2024-03-23T10:13:59;14.32;;;4.85;;
16472;SDS011;8347;52.486;13.432;2024-03-23T10:16:45;21.95;;;4.53;;
16472;SDS011;8347;52.486;13.432;2024-03-23T10:19:31;11.77;;;3.60;;
16472;SDS011;8347;52.486;13.432;2024-03-23T10:22:19;16.90;;;5.40;;
16472;SDS011;8347;52.486;13.432;2024-03-23T10:25:09;9.05;;;3.53;;
16472;SDS011;8347;52.486;13.432;2024-03-23T10:27:58;13.25;;;4.70;;
16472;SDS011;8347;52.486;13.432;2024-03-23T10:30:46;10.02;;;3.33;;
16472;SDS011;8347;52.486;13.432;2024-03-23T10:33:32;10.68;;;3.53;;
16472;SDS011;8347;52.486;13.432;2024-03-23T10:36:21;11.20;;;4.05;;
16472;SDS011;8347;52.486;13.432;2024-03-23T10:39:08;20.58;;;3.58;;
16472;SDS011;8347;52.486;13.432;2024-03-23T10:41:54;11.05;;;3.97;;
16472;SDS011;8347;52.486;13.432;2024-03-23T10:44:42;10.52;;;3.90;;
16472;SDS011;8347;52.486;13.432;2024-03-23T10:47:29;11.13;;;4.25;;
16472;SDS011;8347;52.486;13.432;2024-03-23T10:50:15;18.67;;;5.10;;
16472;SDS011;8347;52.486;13.432;2024-03-23T10:53:02;14.02;;;4.80;;
16472;SDS011;8347;52.486;13.432;2024-03-23T10:55:49;13.82;;;4.47;;
16472;SDS011;8347;52.486;13.432;2024-03-23T10:58:39;15.82;;;7.38;;
16472;SDS011;8347;52.486;13.432;2024-03-23T11:01:26;18.13;;;3.88;;
16472;SDS011;8347;52.486;13.432;2024-03-23T11:04:17;13.70;;;3.55;;
16472;SDS011;8347;52.486;13.432;2024-03-23T11:07:31;13.27;;;5.63;;
16472;SDS011;8347;52.486;13.432;2024-03-23T11:10:24;14.48;;;4.82;;
16472;SDS011;8347;52.486;13.432;2024-03-23T11:13:21;11.63;;;4.82;;
16472;SDS011;8347;52.486;13.432;2024-03-23T11:16:14;14.20;;;2.92;;
16472;SDS011;8347;52.486;13.432;2024-03-23T11:22:37;12.35;;;5.25;;
16472;SDS011;8347;52.486;13.432;2024-03-23T11:25:26;17.30;;;6.13;;
16472;SDS011;8347;52.486;13.432;2024-03-23T11:28:13;21.40;;;8.07;;
16472;SDS011;8347;52.486;13.432;2024-03-23T11:31:01;15.32;;;6.40;;
16472;SDS011;8347;52.486;13.432;2024-03-23T11:33:48;15.30;;;5.53;;
16472;SDS011;8347;52.486;13.432;2024-03-23T11:36:35;15.30;;;5.15;;
16472;SDS011;8347;52.486;13.432;2024-03-23T11:39:22;13.05;;;4.75;;
16472;SDS011;8347;52.486;13.432;2024-03-23T11:42:08;19.40;;;8.13;;
16472;SDS011;8347;52.486;13.432;2024-03-23T11:44:54;9.07;;;5.05;;
16472;SDS011;8347;52.486;13.432;2024-03-23T11:47:41;7.32;;;3.92;;
16472;SDS011;8347;52.486;13.432;2024-03-23T11:50:28;14.20;;;2.75;;
16472;SDS011;8347;52.486;13.432;2024-03-23T11:53:15;8.68;;;3.20;;
16472;SDS011;8347;52.486;13.432;2024-03-23T11:56:03;9.85;;;3.85;;
16472;SDS011;8347;52.486;13.432;2024-03-23T11:58:49;15.07;;;4.28;;
16472;SDS011;8347;52.486;13.432;2024-03-23T12:01:37;7.03;;;3.67;;
16472;SDS011;8347;52.486;13.432;2024-03-23T12:04:27;14.55;;;3.22;;
16472;SDS011;8347;52.486;13.432;2024-03-23T12:07:18;8.73;;;2.85;;
16472;SDS011;8347;52.486;13.432;2024-03-23T12:10:05;7.40;;;2.40;;
16472;SDS011;8347;52.486;13.432;2024-03-23T12:12:59;8.00;;;2.42;;
16472;SDS011;8347;52.486;13.432;2024-03-23T12:15:46;7.00;;;2.38;;
16472;SDS011;8347;52.486;13.432;2024-03-23T12:18:35;13.45;;;3.00;;
16472;SDS011;8347;52.486;13.432;2024-03-23T12:21:21;6.13;;;2.45;;
16472;SDS011;8347;52.486;13.432;2024-03-23T12:24:08;9.82;;;4.78;;
16472;SDS011;8347;52.486;13.432;2024-03-23T12:26:54;13.27;;;3.40;;
16472;SDS011;8347;52.486;13.432;2024-03-23T12:29:41;8.98;;;2.97;;
16472;SDS011;8347;52.486;13.432;2024-03-23T12:32:31;8.90;;;2.75;;
16472;SDS011;8347;52.486;13.432;2024-03-23T12:35:17;13.10;;;6.25;;
16472;SDS011;8347;52.486;13.432;2024-03-23T12:38:04;6.55;;;2.53;;
16472;SDS011;8347;52.486;13.432;2024-03-23T12:40:51;6.47;;;2.63;;
16472;SDS011;8347;52.486;13.432;2024-03-23T12:43:37;11.90;;;3.33;;
16472;SDS011;8347;52.486;13.432;2024-03-23T12:46:24;8.27;;;3.10;;
16472;SDS011;8347;52.486;13.432;2024-03-23T12:49:11;8.73;;;3.05;;
16472;SDS011;8347;52.486;13.432;2024-03-23T12:51:57;6.53;;;3.08;;
16472;SDS011;8347;52.486;13.432;2024-03-23T12:54:45;14.07;;;3.53;;
16472;SDS011;8347;52.486;13.432;2024-03-23T12:57:31;7.78;;;2.65;;
16472;SDS011;8347;52.486;13.432;2024-03-23T13:00:18;6.88;;;2.55;;
16472;SDS011;8347;52.486;13.432;2024-03-23T13:03:05;10.10;;;3.10;;
16472;SDS011;8347;52.486;13.432;2024-03-23T13:05:53;3.65;;;1.90;;
16472;SDS011;8347;52.486;13.432;2024-03-23T13:08:39;4.47;;;1.80;;
16472;SDS011;8347;52.486;13.432;2024-03-23T13:11:26;4.97;;;1.70;;
16472;SDS011;8347;52.486;13.432;2024-03-23T13:14:13;6.78;;;3.47;;
16472;SDS011;8347;52.486;13.432;2024-03-23T13:17:02;8.88;;;3.53;;
16472;SDS011;8347;52.486;13.432;2024-03-23T13:19:49;7.05;;;2.38;;
16472;SDS011;8347;52.486;13.432;2024-03-23T13:22:36;6.68;;;3.03;;
16472;SDS011;8347;52.486;13.432;2024-03-23T13:25:23;7.72;;;2.78;;
16472;SDS011;8347;52.486;13.432;2024-03-23T13:28:09;12.23;;;4.63;;
16472;SDS011;8347;52.486;13.432;2024-03-23T13:30:56;5.75;;;2.75;;
16472;SDS011;8347;52.486;13.432;2024-03-23T13:33:43;10.05;;;2.25;;
16472;SDS011;8347;52.486;13.432;2024-03-23T13:36:30;8.50;;;3.00;;
16472;SDS011;8347;52.486;13.432;2024-03-23T13:39:17;10.00;;;2.88;;
16472;SDS011;8347;52.486;13.432;2024-03-23T13:42:03;7.97;;;3.78;;
16472;SDS011;8347;52.486;13.432;2024-03-23T13:44:50;14.27;;;3.85;;
16472;SDS011;8347;52.486;13.432;2024-03-23T13:47:36;11.85;;;3.20;;
16472;SDS011;8347;52.486;13.432;2024-03-23T13:50:22;5.90;;;2.70;;
16472;SDS011;8347;52.486;13.432;2024-03-23T13:53:09;11.27;;;3.47;;
16472;SDS011;8347;52.486;13.432;2024-03-23T13:55:55;8.80;;;3.05;;
16472;SDS011;8347;52.486;13.432;2024-03-23T13:58:42;16.75;;;4.90;;
16472;SDS011;8347;52.486;13.432;2024-03-23T14:01:32;15.13;;;3.80;;
16472;SDS011;8347;52.486;13.432;2024-03-23T14:04:19;10.20;;;3.50;;
16472;SDS011;8347;52.486;13.432;2024-03-23T14:07:06;12.23;;;3.83;;
16472;SDS011;8347;52.486;13.432;2024-03-23T14:09:54;14.38;;;4.57;;
16472;SDS011;8347;52.486;13.432;2024-03-23T14:12:41;17.50;;;5.47;;
16472;SDS011;8347;52.486;13.432;2024-03-23T14:15:27;12.20;;;4.55;;
16472;SDS011;8347;52.486;13.432;2024-03-23T14:18:14;9.68;;;3.55;;
16472;SDS011;8347;52.486;13.432;2024-03-23T14:21:01;11.65;;;3.83;;
16472;SDS011;8347;52.486;13.432;2024-03-23T14:23:48;12.95;;;3.42;;
16472;SDS011;8347;52.486;13.432;2024-03-23T14:26:35;8.23;;;3.40;;
16472;SDS011;8347;52.486;13.432;2024-03-23T14:29:21;12.57;;;3.67;;
16472;SDS011;8347;52.486;13.432;2024-03-23T14:32:08;6.93;;;3.55;;
16472;SDS011;8347;52.486;13.432;2024-03-23T14:34:54;8.88;;;3.03;;
16472;SDS011;8347;52.486;13.432;2024-03-23T14:37:41;16.85;;;3.80;;
16472;SDS011;8347;52.486;13.432;2024-03-23T14:40:28;13.23;;;4.97;;
16472;SDS011;8347;52.486;13.432;2024-03-23T14:43:15;12.18;;;5.57;;
16472;SDS011;8347;52.486;13.432;2024-03-23T14:46:08;10.63;;;4.35;;
16472;SDS011;8347;52.486;13.432;2024-03-23T14:48:55;17.83;;;5.22;;
16472;SDS011;8347;52.486;13.432;2024-03-23T14:51:41;15.57;;;6.00;;
16472;SDS011;8347;52.486;13.432;2024-03-23T14:54:28;31.20;;;12.85;;
16472;SDS011;8347;52.486;13.432;2024-03-23T14:57:15;21.67;;;8.68;;
16472;SDS011;8347;52.486;13.432;2024-03-23T15:00:02;10.40;;;4.10;;
16472;SDS011;8347;52.486;13.432;2024-03-23T15:02:50;13.55;;;4.45;;
16472;SDS011;8347;52.486;13.432;2024-03-23T15:05:36;14.02;;;4.07;;
16472;SDS011;8347;52.486;13.432;2024-03-23T15:08:23;8.50;;;3.95;;
16472;SDS011;8347;52.486;13.432;2024-03-23T15:11:10;12.60;;;6.43;;
16472;SDS011;8347;52.486;13.432;2024-03-23T15:13:56;20.55;;;8.38;;
16472;SDS011;8347;52.486;13.432;2024-03-23T15:16:42;17.38;;;6.78;;
16472;SDS011;8347;52.486;13.432;2024-03-23T15:19:29;19.63;;;8.40;;
16472;SDS011;8347;52.486;13.432;2024-03-23T15:22:16;14.68;;;5.97;;
16472;SDS011;8347;52.486;13.432;2024-03-23T15:25:03;9.73;;;3.75;;
16472;SDS011;8347;52.486;13.432;2024-03-23T15:27:49;10.48;;;4.10;;
16472;SDS011;8347;52.486;13.432;2024-03-23T15:30:36;14.95;;;7.28;;
16472;SDS011;8347;52.486;13.432;2024-03-23T15:33:22;11.20;;;5.63;;
16472;SDS011;8347;52.486;13.432;2024-03-23T15:36:08;22.73;;;8.48;;
16472;SDS011;8347;52.486;13.432;2024-03-23T15:38:55;12.35;;;6.60;;
16472;SDS011;8347;52.486;13.432;2024-03-23T15:41:43;10.95;;;6.03;;
16472;SDS011;8347;52.486;13.432;2024-03-23T15:44:30;34.92;;;15.18;;
16472;SDS011;8347;52.486;13.432;2024-03-23T15:47:16;39.38;;;16.98;;
16472;SDS011;8347;52.486;13.432;2024-03-23T15:50:04;31.83;;;12.60;;
16472;SDS011;8347;52.486;13.432;2024-03-23T15:52:54;18.35;;;6.80;;
16472;SDS011;8347;52.486;13.432;2024-03-23T15:55:41;8.98;;;4.70;;
16472;SDS011;8347;52.486;13.432;2024-03-23T15:58:28;18.75;;;6.63;;
16472;SDS011;8347;52.486;13.432;2024-03-23T16:01:15;12.70;;;4.93;;
16472;SDS011;8347;52.486;13.432;2024-03-23T16:04:02;9.70;;;5.30;;
16472;SDS011;8347;52.486;13.432;2024-03-23T16:06:48;9.20;;;4.38;;
16472;SDS011;8347;52.486;13.432;2024-03-23T16:09:35;10.18;;;4.45;;
16472;SDS011;8347;52.486;13.432;2024-03-23T16:12:21;17.25;;;7.60;;
16472;SDS011;8347;52.486;13.432;2024-03-23T16:15:08;16.92;;;6.75;;
16472;SDS011;8347;52.486;13.432;2024-03-23T16:17:55;20.15;;;7.30;;
16472;SDS011;8347;52.486;13.432;2024-03-23T16:20:41;16.48;;;6.85;;
16472;SDS011;8347;52.486;13.432;2024-03-23T16:23:28;13.60;;;5.53;;
16472;SDS011;8347;52.486;13.432;2024-03-23T16:26:15;9.40;;;5.40;;
16472;SDS011;8347;52.486;13.432;2024-03-23T16:29:02;8.60;;;5.38;;
16472;SDS011;8347;52.486;13.432;2024-03-23T16:31:49;19.73;;;6.05;;
16472;SDS011;8347;52.486;13.432;2024-03-23T16:34:35;13.23;;;5.88;;
16472;SDS011;8347;52.486;13.432;2024-03-23T16:37:22;12.13;;;5.82;;
16472;SDS011;8347;52.486;13.432;2024-03-23T16:40:09;17.85;;;7.05;;
16472;SDS011;8347;52.486;13.432;2024-03-23T16:42:57;18.42;;;9.32;;
16472;SDS011;8347;52.486;13.432;2024-03-23T16:45:50;16.27;;;9.45;;
16472;SDS011;8347;52.486;13.432;2024-03-23T16:48:40;45.60;;;15.73;;
16472;SDS011;8347;52.486;13.432;2024-03-23T16:51:27;25.65;;;11.35;;
16472;SDS011;8347;52.486;13.432;2024-03-23T16:54:13;17.17;;;8.75;;
16472;SDS011;8347;52.486;13.432;2024-03-23T16:57:00;15.75;;;6.47;;
16472;SDS011;8347;52.486;13.432;2024-03-23T16:59:46;10.30;;;5.03;;
16472;SDS011;8347;52.486;13.432;2024-03-23T17:02:33;16.10;;;8.15;;
16472;SDS011;8347;52.486;13.432;2024-03-23T17:05:23;23.00;;;7.32;;
16472;SDS011;8347;52.486;13.432;2024-03-23T17:08:09;19.05;;;7.65;;
16472;SDS011;8347;52.486;13.432;2024-03-23T17:10:59;28.50;;;10.70;;
16472;SDS011;8347;52.486;13.432;2024-03-23T17:13:49;32.83;;;13.77;;
16472;SDS011;8347;52.486;13.432;2024-03-23T17:16:38;30.17;;;11.68;;
16472;SDS011;8347;52.486;13.432;2024-03-23T17:19:25;15.48;;;8.38;;
16472;SDS011;8347;52.486;13.432;2024-03-23T17:22:12;13.68;;;6.72;;
16472;SDS011;8347;52.486;13.432;2024-03-23T17:24:59;20.70;;;9.45;;
16472;SDS011;8347;52.486;13.432;2024-03-23T17:27:45;15.95;;;6.82;;
16472;SDS011;8347;52.486;13.432;2024-03-23T17:30:32;15.63;;;8.13;;
16472;SDS011;8347;52.486;13.432;2024-03-23T17:33:18;14.63;;;6.95;;
16472;SDS011;8347;52.486;13.432;2024-03-23T17:36:07;24.92;;;10.48;;
16472;SDS011;8347;52.486;13.432;2024-03-23T17:38:54;16.50;;;7.85;;